Aviation Digital Data Service (ADDS)

Output produced by METARs form (1520 UTC 19 January 2018)
found at http://aviationweather.gov/adds/metars/
 
KGGG 191453Z 20006KT 10SM BKN030 OVC037 05/M06 A3028 RMK AO2 SLP259 T00501061 56003